createdAt,value
2018-03-28T00:00:24.727Z,93.70
2018-03-28T00:01:24.712Z,93.41
2018-03-28T00:02:24.703Z,93.23
2018-03-28T00:03:24.687Z,93.32
2018-03-28T00:04:24.677Z,92.84
2018-03-28T00:05:24.660Z,92.84
2018-03-28T00:06:24.651Z,93.04
2018-03-28T00:07:24.641Z,92.84
2018-03-28T00:08:24.619Z,93.32
2018-03-28T00:09:24.611Z,93.23
2018-03-28T00:10:24.592Z,93.23
2018-03-28T00:11:24.585Z,93.41
2018-03-28T00:12:24.573Z,93.60
2018-03-28T00:13:24.555Z,93.32
2018-03-28T00:14:24.546Z,93.23
2018-03-28T00:15:24.527Z,93.23
2018-03-28T00:16:24.513Z,93.13
2018-03-28T00:17:24.501Z,93.70
2018-03-28T00:18:24.487Z,93.89
2018-03-28T00:19:24.481Z,94.18
2018-03-28T00:20:24.461Z,93.70
2018-03-28T00:21:24.454Z,93.60
2018-03-28T00:22:24.446Z,93.51
2018-03-28T00:23:24.427Z,94.08
2018-03-28T00:24:24.406Z,94.08
2018-03-28T00:25:24.398Z,94.18
2018-03-28T00:26:24.388Z,94.65
2018-03-28T00:27:24.370Z,95.12
2018-03-28T00:28:24.361Z,94.84
2018-03-28T00:29:24.348Z,95.03
2018-03-28T00:30:24.336Z,94.93
2018-03-28T00:31:24.321Z,94.46
2018-03-28T00:32:24.301Z,93.89
2018-03-28T00:33:24.287Z,94.74
2018-03-28T00:34:24.273Z,93.98
2018-03-28T00:35:24.271Z,94.93
2018-03-28T00:36:24.251Z,94.08
2018-03-28T00:37:24.237Z,93.98
2018-03-28T00:38:24.228Z,94.27
2018-03-28T00:39:24.216Z,93.32
2018-03-28T00:40:24.200Z,93.79
2018-03-28T00:41:24.181Z,93.70
2018-03-28T00:42:24.239Z,93.89
2018-03-28T00:43:24.163Z,93.89
2018-03-28T00:44:24.149Z,93.70
2018-03-28T00:45:24.131Z,94.18
2018-03-28T00:46:24.115Z,93.98
2018-03-28T00:47:24.101Z,93.51
2018-03-28T00:48:24.089Z,93.79
2018-03-28T00:49:24.078Z,94.08
2018-03-28T00:50:24.069Z,94.93
2018-03-28T00:51:24.054Z,94.46
2018-03-28T00:52:24.043Z,93.98
2018-03-28T00:53:24.024Z,93.79
2018-03-28T00:54:24.009Z,93.79
2018-03-28T00:55:23.996Z,94.18
2018-03-28T00:56:23.988Z,93.89
2018-03-28T00:57:23.970Z,93.60
2018-03-28T00:58:23.957Z,93.98
2018-03-28T00:59:23.943Z,94.65
2018-03-28T01:00:23.931Z,94.56
2018-03-28T01:01:23.916Z,94.84
2018-03-28T01:02:23.906Z,94.56
2018-03-28T01:03:23.891Z,94.56
2018-03-28T01:04:23.886Z,94.65
2018-03-28T01:05:23.864Z,94.56
2018-03-28T01:06:23.849Z,94.56
2018-03-28T01:07:23.836Z,95.03
2018-03-28T01:08:23.823Z,95.22
2018-03-28T01:09:23.819Z,94.37
2018-03-28T01:10:23.797Z,95.12
2018-03-28T01:11:23.786Z,94.84
2018-03-28T01:12:23.775Z,95.03
2018-03-28T01:13:23.757Z,95.03
2018-03-28T01:14:23.745Z,94.74
2018-03-28T01:15:23.738Z,94.74
2018-03-28T01:16:23.716Z,93.79
2018-03-28T01:17:23.704Z,94.46
2018-03-28T01:18:23.695Z,94.65
2018-03-28T01:19:23.678Z,94.46
2018-03-28T01:20:23.664Z,94.84
2018-03-28T01:21:23.649Z,95.03
2018-03-28T01:22:23.638Z,94.93
2018-03-28T01:23:23.623Z,94.56
2018-03-28T01:24:23.609Z,94.93
2018-03-28T01:25:23.602Z,95.22
2018-03-28T01:26:23.585Z,95.79
2018-03-28T01:27:23.573Z,95.32
2018-03-28T01:28:23.560Z,96.08
2018-03-28T01:29:23.550Z,95.51
2018-03-28T01:30:23.542Z,95.89
2018-03-28T01:31:23.517Z,95.51
2018-03-28T01:32:23.511Z,95.32
2018-03-28T01:33:23.495Z,95.41
2018-03-28T01:34:23.478Z,95.51
2018-03-28T01:35:23.471Z,94.84
2018-03-28T01:36:23.452Z,95.22
2018-03-28T01:37:23.445Z,94.56
2018-03-28T01:38:23.431Z,95.22
2018-03-28T01:39:23.413Z,93.79
2018-03-28T01:40:23.401Z,94.18
2018-03-28T01:41:23.386Z,94.46
2018-03-28T01:42:23.380Z,94.84
2018-03-28T01:43:23.412Z,94.93
2018-03-28T01:44:23.351Z,94.37
2018-03-28T01:45:23.333Z,94.93
2018-03-28T01:46:23.319Z,94.84
2018-03-28T01:47:23.308Z,95.12
2018-03-28T01:48:23.294Z,94.08
2018-03-28T01:49:23.279Z,94.46
2018-03-28T01:50:23.278Z,94.74
2018-03-28T01:51:23.271Z,94.37
2018-03-28T01:52:23.242Z,94.65
2018-03-28T01:53:23.233Z,94.65
2018-03-28T01:54:23.213Z,94.74
2018-03-28T01:55:23.201Z,94.74
2018-03-28T01:56:23.188Z,93.70
2018-03-28T01:57:23.180Z,93.60
2018-03-28T01:58:23.163Z,94.18
2018-03-28T01:59:23.154Z,94.08
2018-03-28T02:00:23.141Z,94.18
2018-03-28T02:01:23.124Z,94.27
2018-03-28T02:02:23.108Z,94.65
2018-03-28T02:03:23.095Z,94.56
2018-03-28T02:04:23.083Z,93.98
2018-03-28T02:05:23.081Z,93.51
2018-03-28T02:06:23.055Z,93.51
2018-03-28T02:07:23.043Z,93.98
2018-03-28T02:08:23.036Z,94.18
2018-03-28T02:09:23.019Z,94.18
2018-03-28T02:10:23.004Z,93.79
2018-03-28T02:11:22.991Z,94.37
2018-03-28T02:12:22.976Z,93.98
2018-03-28T02:13:22.965Z,93.70
2018-03-28T02:14:22.956Z,94.37
2018-03-28T02:15:22.939Z,94.37
2018-03-28T02:16:22.924Z,94.18
2018-03-28T02:17:22.912Z,93.79
2018-03-28T02:18:22.896Z,93.70
2018-03-28T02:19:22.892Z,93.79
2018-03-28T02:20:22.874Z,93.23
2018-03-28T02:21:22.858Z,93.23
2018-03-28T02:22:22.855Z,93.70
2018-03-28T02:23:22.838Z,93.51
2018-03-28T02:24:22.820Z,94.37
2018-03-28T02:25:22.807Z,94.18
2018-03-28T02:26:22.794Z,93.60
2018-03-28T02:27:22.779Z,93.70
2018-03-28T02:28:22.766Z,93.32
2018-03-28T02:29:22.760Z,93.79
2018-03-28T02:30:22.743Z,93.23
2018-03-28T02:31:22.734Z,93.74
2018-03-28T02:32:22.720Z,93.23
2018-03-28T02:33:22.709Z,93.70
2018-03-28T02:34:22.686Z,93.65
2018-03-28T02:35:22.675Z,94.37
2018-03-28T02:36:22.662Z,94.56
2018-03-28T02:37:22.651Z,93.70
2018-03-28T02:38:22.635Z,93.98
2018-03-28T02:39:22.631Z,94.08
2018-03-28T02:40:22.613Z,94.56
2018-03-28T02:41:22.600Z,94.65
2018-03-28T02:42:22.582Z,94.65
2018-03-28T02:43:22.575Z,94.13
2018-03-28T02:44:22.557Z,94.37
2018-03-28T02:45:22.551Z,94.18
2018-03-28T02:46:22.534Z,94.56
2018-03-28T02:47:22.518Z,94.74
2018-03-28T02:48:22.511Z,94.46
2018-03-28T02:49:22.493Z,94.32
2018-03-28T02:50:22.485Z,93.98
2018-03-28T02:51:22.466Z,93.84
2018-03-28T02:52:22.454Z,93.37
2018-03-28T02:53:22.441Z,93.08
2018-03-28T02:54:22.442Z,93.55
2018-03-28T02:55:22.420Z,93.65
2018-03-28T02:56:22.405Z,93.94
2018-03-28T02:57:22.388Z,92.99
2018-03-28T02:58:22.377Z,93.08
2018-03-28T02:59:22.370Z,93.27
2018-03-28T03:00:22.348Z,93.94
2018-03-28T03:01:22.336Z,92.99
2018-03-28T03:02:22.327Z,93.84
2018-03-28T03:03:22.313Z,93.84
2018-03-28T03:04:22.305Z,93.74
2018-03-28T03:05:22.284Z,93.94
2018-03-28T03:06:22.272Z,94.22
2018-03-28T03:07:22.267Z,93.55
2018-03-28T03:08:22.245Z,93.89
2018-03-28T03:09:22.236Z,94.70
2018-03-28T03:10:22.219Z,94.32
2018-03-28T03:11:22.206Z,94.51
2018-03-28T03:12:22.198Z,93.89
2018-03-28T03:13:22.188Z,93.84
2018-03-28T03:14:22.168Z,94.08
2018-03-28T03:15:22.155Z,94.93
2018-03-28T03:16:22.144Z,94.22
2018-03-28T03:17:22.132Z,93.55
2018-03-28T03:18:22.118Z,94.13
2018-03-28T03:19:22.111Z,93.84
2018-03-28T03:20:22.092Z,93.27
2018-03-28T03:21:22.083Z,93.18
2018-03-28T03:22:22.076Z,93.65
2018-03-28T03:23:22.052Z,93.74
2018-03-28T03:24:22.039Z,93.84
2018-03-28T03:25:22.033Z,93.74
2018-03-28T03:26:22.021Z,94.13
2018-03-28T03:27:22.002Z,93.74
2018-03-28T03:28:21.987Z,94.13
2018-03-28T03:29:21.983Z,94.22
2018-03-28T03:30:21.963Z,94.03
2018-03-28T03:31:21.960Z,94.22
2018-03-28T03:32:21.943Z,94.46
2018-03-28T03:33:21.931Z,93.79
2018-03-28T03:34:21.909Z,93.84
2018-03-28T03:35:21.901Z,93.55
2018-03-28T03:36:21.883Z,94.32
2018-03-28T03:37:21.871Z,93.94
2018-03-28T03:38:21.862Z,94.32
2018-03-28T03:39:21.844Z,94.13
2018-03-28T03:40:21.833Z,94.13
2018-03-28T03:41:21.828Z,93.94
2018-03-28T03:42:21.814Z,94.70
2018-03-28T03:43:21.799Z,94.03
2018-03-28T03:44:21.780Z,94.89
2018-03-28T03:45:21.777Z,93.94
2018-03-28T03:46:21.754Z,94.79
2018-03-28T03:47:21.750Z,94.03
2018-03-28T03:48:21.734Z,94.13
2018-03-28T03:49:21.717Z,93.55
2018-03-28T03:50:21.704Z,94.13
2018-03-28T03:51:21.695Z,94.13
2018-03-28T03:52:21.679Z,94.60
2018-03-28T03:53:21.668Z,94.42
2018-03-28T03:54:21.702Z,94.98
2018-03-28T03:55:21.649Z,94.79
2018-03-28T03:56:21.626Z,94.42
2018-03-28T03:57:21.614Z,94.98
2018-03-28T03:58:21.601Z,95.46
2018-03-28T03:59:21.589Z,95.08
2018-03-28T04:00:21.577Z,95.17
2018-03-28T04:01:21.573Z,95.75
2018-03-28T04:02:21.556Z,94.98
2018-03-28T04:03:21.545Z,95.27
2018-03-28T04:04:21.524Z,95.08
2018-03-28T04:05:21.511Z,95.27
2018-03-28T04:06:21.499Z,95.56
2018-03-28T04:07:21.493Z,95.56
2018-03-28T04:08:21.473Z,95.56
2018-03-28T04:09:21.468Z,95.56
2018-03-28T04:10:21.446Z,95.36
2018-03-28T04:11:21.438Z,95.46
2018-03-28T04:12:21.423Z,95.75
2018-03-28T04:13:21.412Z,95.75
2018-03-28T04:14:21.396Z,95.75
2018-03-28T04:15:21.385Z,96.12
2018-03-28T04:16:21.378Z,96.55
2018-03-28T04:17:21.361Z,96.22
2018-03-28T04:18:21.347Z,96.03
2018-03-28T04:19:21.333Z,96.12
2018-03-28T04:20:21.326Z,96.17
2018-03-28T04:21:21.308Z,95.98
2018-03-28T04:22:21.305Z,96.41
2018-03-28T04:23:21.283Z,96.60
2018-03-28T04:24:21.269Z,96.36
2018-03-28T04:25:21.264Z,96.26
2018-03-28T04:26:21.244Z,96.41
2018-03-28T04:27:21.233Z,96.31
2018-03-28T04:28:21.224Z,97.22
2018-03-28T04:29:21.212Z,96.89
2018-03-28T04:30:21.197Z,96.03
2018-03-28T04:31:21.183Z,97.22
2018-03-28T04:32:21.168Z,97.22
2018-03-28T04:33:21.155Z,97.41
2018-03-28T04:34:21.141Z,97.41
2018-03-28T04:35:21.139Z,97.79
2018-03-28T04:36:21.116Z,97.79
2018-03-28T04:37:21.104Z,97.84
2018-03-28T04:38:21.090Z,98.08
2018-03-28T04:39:21.080Z,97.46
2018-03-28T04:40:21.097Z,97.74
2018-03-28T04:41:21.059Z,97.03
2018-03-28T04:42:21.041Z,97.93
2018-03-28T04:43:21.034Z,97.98
2018-03-28T04:44:21.014Z,97.88
2018-03-28T04:45:21.009Z,98.27
2018-03-28T04:46:20.989Z,98.46
2018-03-28T04:47:20.987Z,98.83
2018-03-28T04:48:20.964Z,98.46
2018-03-28T04:49:20.957Z,98.46
2018-03-28T04:50:20.944Z,98.83
2018-03-28T04:51:20.925Z,99.02
2018-03-28T04:52:20.917Z,98.65
2018-03-28T04:53:20.911Z,97.03
2018-03-28T04:54:20.894Z,97.22
2018-03-28T04:55:20.875Z,97.65
2018-03-28T04:56:20.862Z,96.94
2018-03-28T04:57:20.857Z,97.84
2018-03-28T04:58:20.836Z,97.50
2018-03-28T04:59:20.835Z,98.03
2018-03-28T05:00:20.816Z,97.84
2018-03-28T05:01:20.801Z,97.74
2018-03-28T05:02:20.785Z,97.98
2018-03-28T05:03:20.776Z,98.88
2018-03-28T05:04:20.774Z,97.69
2018-03-28T05:05:20.756Z,98.65
2018-03-28T05:06:20.740Z,98.22
2018-03-28T05:07:20.726Z,99.02
2018-03-28T05:08:20.718Z,98.74
2018-03-28T05:09:20.704Z,98.93
2018-03-28T05:10:20.728Z,98.83
2018-03-28T05:11:20.673Z,98.08
2018-03-28T05:12:20.660Z,99.02
2018-03-28T05:13:20.646Z,99.12
2018-03-28T05:14:20.635Z,99.41
2018-03-28T05:15:20.627Z,99.41
2018-03-28T05:16:20.609Z,99.60
2018-03-28T05:17:20.595Z,99.50
2018-03-28T05:18:20.588Z,99.98
2018-03-28T05:19:20.569Z,99.79
2018-03-28T05:20:20.606Z,99.99
2018-03-28T05:21:20.546Z,99.79
2018-03-28T05:22:20.533Z,99.79
2018-03-28T05:23:20.529Z,99.69
2018-03-28T05:24:20.513Z,99.99
2018-03-28T05:25:20.492Z,99.12
2018-03-28T05:26:20.485Z,99.88
2018-03-28T05:27:20.473Z,99.99
2018-03-28T05:28:20.455Z,99.22
2018-03-28T05:29:20.455Z,99.22
2018-03-28T05:30:20.433Z,99.79
2018-03-28T05:31:20.420Z,99.41
2018-03-28T05:32:20.429Z,99.69
2018-03-28T05:33:20.409Z,99.02
2018-03-28T05:34:20.392Z,99.50
2018-03-28T05:35:20.380Z,99.50
2018-03-28T05:36:20.355Z,99.69
2018-03-28T05:37:20.341Z,99.31
2018-03-28T05:38:20.328Z,98.60
2018-03-28T05:39:20.319Z,98.83
2018-03-28T05:40:20.313Z,99.27
2018-03-28T05:41:20.292Z,98.83
2018-03-28T05:42:20.279Z,98.83
2018-03-28T05:43:20.272Z,98.74
2018-03-28T05:44:20.253Z,99.22
2018-03-28T05:45:20.241Z,98.46
2018-03-28T05:46:20.233Z,98.83
2018-03-28T05:47:20.215Z,98.13
2018-03-28T05:48:20.204Z,98.65
2018-03-28T05:49:20.198Z,98.60
2018-03-28T05:50:20.241Z,98.03
2018-03-28T05:51:20.171Z,98.74
2018-03-28T05:52:20.156Z,98.83
2018-03-28T05:53:20.146Z,98.65
2018-03-28T05:54:20.134Z,98.93
2018-03-28T05:55:20.116Z,98.50
2018-03-28T05:56:20.106Z,97.65
2018-03-28T05:57:20.091Z,97.93
2018-03-28T05:58:20.082Z,98.50
2018-03-28T05:59:20.065Z,97.65
2018-03-28T06:00:20.054Z,97.74
2018-03-28T06:01:20.041Z,97.84
2018-03-28T06:02:20.036Z,97.84
2018-03-28T06:03:20.016Z,97.84
2018-03-28T06:04:20.001Z,97.84
2018-03-28T06:05:19.987Z,97.46
2018-03-28T06:06:19.974Z,96.98
2018-03-28T06:07:19.973Z,97.27
2018-03-28T06:08:19.954Z,98.13
2018-03-28T06:09:19.938Z,98.03
2018-03-28T06:10:19.922Z,98.13
2018-03-28T06:11:19.912Z,98.13
2018-03-28T06:12:19.900Z,97.65
2018-03-28T06:13:19.886Z,98.60
2018-03-28T06:14:19.877Z,97.65
2018-03-28T06:15:19.860Z,97.74
2018-03-28T06:16:19.848Z,97.84
2018-03-28T06:17:19.843Z,98.50
2018-03-28T06:18:19.822Z,98.79
2018-03-28T06:19:19.812Z,98.50
2018-03-28T06:20:19.797Z,98.41
2018-03-28T06:21:19.786Z,97.74
2018-03-28T06:22:19.773Z,98.22
2018-03-28T06:23:19.764Z,98.32
2018-03-28T06:24:19.750Z,98.60
2018-03-28T06:25:19.738Z,98.88
2018-03-28T06:26:19.727Z,98.98
2018-03-28T06:27:19.713Z,99.08
2018-03-28T06:28:19.704Z,98.69
2018-03-28T06:29:19.691Z,99.27
2018-03-28T06:30:19.675Z,98.69
2018-03-28T06:31:19.672Z,97.65
2018-03-28T06:32:19.653Z,98.50
2018-03-28T06:33:19.634Z,98.22
2018-03-28T06:34:19.630Z,98.32
2018-03-28T06:35:19.608Z,98.50
2018-03-28T06:36:19.599Z,98.32
2018-03-28T06:37:19.584Z,98.98
2018-03-28T06:38:19.577Z,98.03
2018-03-28T06:39:19.559Z,98.60
2018-03-28T06:40:19.553Z,98.69
2018-03-28T06:41:19.535Z,98.69
2018-03-28T06:42:19.522Z,98.88
2018-03-28T06:43:19.511Z,99.17
2018-03-28T06:44:19.498Z,98.60
2018-03-28T06:45:19.486Z,97.84
2018-03-28T06:46:19.476Z,98.50
2018-03-28T06:47:19.517Z,98.69
2018-03-28T06:48:19.454Z,98.98
2018-03-28T06:49:19.435Z,98.41
2018-03-28T06:50:19.422Z,99.17
2018-03-28T06:51:19.410Z,98.88
2018-03-28T06:52:19.405Z,98.60
2018-03-28T06:53:19.385Z,98.13
2018-03-28T06:54:19.372Z,98.41
2018-03-28T06:55:19.367Z,98.03
2018-03-28T06:56:19.357Z,98.13
2018-03-28T06:57:19.338Z,97.55
2018-03-28T06:58:19.330Z,98.41
2018-03-28T06:59:19.314Z,97.65
2018-03-28T07:00:19.302Z,97.27
2018-03-28T07:01:19.288Z,97.99
2018-03-28T07:02:19.281Z,98.03
2018-03-28T07:03:19.262Z,97.84
2018-03-28T07:04:19.249Z,97.70
2018-03-28T07:05:19.239Z,97.84
2018-03-28T07:06:19.224Z,97.84
2018-03-28T07:07:19.278Z,98.32
2018-03-28T07:08:19.201Z,98.22
2018-03-28T07:09:19.194Z,98.60
2018-03-28T07:10:19.178Z,97.65
2018-03-28T07:11:19.170Z,97.89
2018-03-28T07:12:19.159Z,98.65
2018-03-28T07:13:19.146Z,98.18
2018-03-28T07:14:19.126Z,98.65
2018-03-28T07:15:19.115Z,98.36
2018-03-28T07:16:19.110Z,99.13
2018-03-28T07:17:19.090Z,99.08
2018-03-28T07:18:19.084Z,99.03
2018-03-28T07:19:19.066Z,98.94
2018-03-28T07:20:19.064Z,98.84
2018-03-28T07:21:19.045Z,98.55
2018-03-28T07:22:19.029Z,99.13
2018-03-28T07:23:19.017Z,99.41
2018-03-28T07:24:19.012Z,99.51
2018-03-28T07:25:18.996Z,99.51
2018-03-28T07:26:18.980Z,99.41
2018-03-28T07:27:18.982Z,99.60
2018-03-28T07:28:18.958Z,99.41
2018-03-28T07:29:18.946Z,99.13
2018-03-28T07:30:18.937Z,99.03
2018-03-28T07:31:18.922Z,99.32
2018-03-28T07:32:18.911Z,99.32
2018-03-28T07:33:18.900Z,99.22
2018-03-28T07:34:18.939Z,99.60
2018-03-28T07:35:18.882Z,99.03
2018-03-28T07:36:18.864Z,99.13
2018-03-28T07:37:18.850Z,99.46
2018-03-28T07:38:18.836Z,99.32
2018-03-28T07:39:18.826Z,99.41
2018-03-28T07:40:18.816Z,98.74
2018-03-28T07:41:18.801Z,99.22
2018-03-28T07:42:18.788Z,99.60
2018-03-28T07:43:18.778Z,99.89
2018-03-28T07:44:18.765Z,99.51
2018-03-28T07:45:18.758Z,99.79
2018-03-28T07:46:18.743Z,99.98
2018-03-28T07:47:18.730Z,99.99
2018-03-28T07:48:18.723Z,99.99
2018-03-28T07:49:18.710Z,99.99
2018-03-28T07:50:18.695Z,99.99
2018-03-28T07:51:18.682Z,99.99
2018-03-28T07:52:18.674Z,99.60
2018-03-28T07:53:18.660Z,99.79
2018-03-28T07:54:18.647Z,99.89
2018-03-28T07:55:18.641Z,99.99
2018-03-28T07:56:18.636Z,99.99
2018-03-28T07:57:18.622Z,99.99
2018-03-28T07:58:18.613Z,99.79
2018-03-28T07:59:18.587Z,99.99
2018-03-28T08:00:18.580Z,99.99
2018-03-28T08:01:18.565Z,99.79
2018-03-28T08:02:18.554Z,99.89
2018-03-28T08:03:18.543Z,99.99
2018-03-28T08:04:18.534Z,99.99
2018-03-28T08:05:18.521Z,99.32
2018-03-28T08:06:18.508Z,99.13
2018-03-28T08:07:18.493Z,98.36
2018-03-28T08:08:18.479Z,97.79
2018-03-28T08:09:18.468Z,99.03
2018-03-28T08:10:18.458Z,99.03
2018-03-28T08:11:18.444Z,99.22
2018-03-28T08:12:18.436Z,99.13
2018-03-28T08:13:18.427Z,99.13
2018-03-28T08:14:18.409Z,98.65
2018-03-28T08:15:18.400Z,97.79
2018-03-28T08:16:18.388Z,97.60
2018-03-28T08:17:18.384Z,98.84
2018-03-28T08:18:18.367Z,98.55
2018-03-28T08:19:18.350Z,98.18
2018-03-28T08:20:18.339Z,98.55
2018-03-28T08:21:18.330Z,99.13
2018-03-28T08:22:18.315Z,98.22
2018-03-28T08:23:18.304Z,98.55
2018-03-28T08:24:18.293Z,98.46
2018-03-28T08:25:18.283Z,98.60
2018-03-28T08:26:18.307Z,98.41
2018-03-28T08:27:18.258Z,98.27
2018-03-28T08:28:18.245Z,98.08
2018-03-28T08:29:18.239Z,98.27
2018-03-28T08:30:18.220Z,98.18
2018-03-28T08:31:18.209Z,98.41
2018-03-28T08:32:18.202Z,99.13
2018-03-28T08:33:18.189Z,98.22
2018-03-28T08:34:18.175Z,99.22
2018-03-28T08:35:18.164Z,98.36
2018-03-28T08:36:18.153Z,97.75
2018-03-28T08:37:18.140Z,98.22
2018-03-28T08:38:18.131Z,97.36
2018-03-28T08:39:18.161Z,96.51
2018-03-28T08:40:18.107Z,94.41
2018-03-28T08:41:18.095Z,94.17
2018-03-28T08:42:18.090Z,93.51
2018-03-28T08:43:18.077Z,93.60
2018-03-28T08:44:18.061Z,93.79
2018-03-28T08:45:18.052Z,93.12
2018-03-28T08:46:18.042Z,93.12
2018-03-28T08:47:18.028Z,92.17
2018-03-28T08:48:18.019Z,93.70
2018-03-28T08:49:18.011Z,92.93
2018-03-28T08:50:17.992Z,93.88
2018-03-28T08:51:18.000Z,93.88
2018-03-28T08:52:17.983Z,93.88
2018-03-28T08:53:17.957Z,94.17
2018-03-28T08:54:17.946Z,93.51
2018-03-28T08:55:17.936Z,93.03
2018-03-28T08:56:17.922Z,93.03
2018-03-28T08:57:17.917Z,92.46
2018-03-28T08:58:17.905Z,93.12
2018-03-28T08:59:17.890Z,92.22
2018-03-28T09:00:17.888Z,92.03
2018-03-28T09:01:17.878Z,92.60
2018-03-28T09:02:17.857Z,92.22
2018-03-28T09:03:17.846Z,91.36
2018-03-28T09:04:17.841Z,91.64
2018-03-28T09:05:17.845Z,90.50
2018-03-28T09:06:17.814Z,88.88
2018-03-28T09:07:17.817Z,88.98
2018-03-28T09:08:17.799Z,89.45
2018-03-28T09:09:17.796Z,89.64
2018-03-28T09:10:17.775Z,89.45
2018-03-28T09:11:17.762Z,90.07
2018-03-28T09:12:17.749Z,89.88
2018-03-28T09:13:17.738Z,89.88
2018-03-28T09:14:17.727Z,89.59
2018-03-28T09:15:17.722Z,89.59
2018-03-28T09:16:17.709Z,90.07
2018-03-28T09:17:17.695Z,89.59
2018-03-28T09:18:17.694Z,89.59
2018-03-28T09:19:17.679Z,89.59
2018-03-28T09:20:17.663Z,88.87
2018-03-28T09:21:17.659Z,88.68
2018-03-28T09:22:17.644Z,86.96
2018-03-28T09:23:17.632Z,86.68
2018-03-28T09:24:17.629Z,86.87
2018-03-28T09:25:17.614Z,85.63
2018-03-28T09:26:17.606Z,84.86
2018-03-28T09:27:17.590Z,84.86
2018-03-28T09:28:17.587Z,85.10
2018-03-28T09:29:17.578Z,84.81
2018-03-28T09:30:17.565Z,85.19
2018-03-28T09:31:17.556Z,85.67
2018-03-28T09:32:17.540Z,86.05
2018-03-28T09:33:17.532Z,84.62
2018-03-28T09:34:17.543Z,85.77
2018-03-28T09:35:17.521Z,85.77
2018-03-28T09:36:17.509Z,84.14
2018-03-28T09:37:17.496Z,85.05
2018-03-28T09:38:17.482Z,86.82
2018-03-28T09:39:17.473Z,86.24
2018-03-28T09:40:17.462Z,84.23
2018-03-28T09:41:17.458Z,83.47
2018-03-28T09:42:17.443Z,83.76
2018-03-28T09:43:17.432Z,83.18
2018-03-28T09:44:17.424Z,83.28
2018-03-28T09:45:17.416Z,83.47
2018-03-28T09:46:17.446Z,83.67
2018-03-28T09:47:17.395Z,82.56
2018-03-28T09:48:17.387Z,81.22
2018-03-28T09:49:17.376Z,80.93
2018-03-28T09:50:17.366Z,81.79
2018-03-28T09:51:17.363Z,80.93
2018-03-28T09:52:17.348Z,79.69
2018-03-28T09:53:17.348Z,79.60
2018-03-28T09:54:17.335Z,79.83
2018-03-28T09:55:17.326Z,79.35
2018-03-28T09:56:17.310Z,80.30
2018-03-28T09:57:17.301Z,80.59
2018-03-28T21:46:48.172Z,97.89
2018-03-28T21:47:48.096Z,97.70
2018-03-28T21:48:48.070Z,98.08
2018-03-28T21:49:48.046Z,98.55
2018-03-28T21:50:48.025Z,98.36
2018-03-28T21:51:48.012Z,99.22
2018-03-28T21:52:48.007Z,99.37
2018-03-28T21:53:47.995Z,99.51
2018-03-28T21:54:47.975Z,99.41
2018-03-28T21:55:47.960Z,99.41
2018-03-28T21:56:47.945Z,99.13
2018-03-28T21:57:47.932Z,99.27
2018-03-28T21:58:47.926Z,99.89
2018-03-28T21:59:47.914Z,99.89
2018-03-28T22:00:47.901Z,99.41
2018-03-28T22:01:47.889Z,99.03
2018-03-28T22:02:47.882Z,99.99
2018-03-28T22:03:47.868Z,99.60
2018-03-28T22:04:47.863Z,99.41
2018-03-28T22:05:47.849Z,99.46
2018-03-28T22:06:47.839Z,99.27
2018-03-28T22:07:47.827Z,98.79
2018-03-28T22:08:47.819Z,99.46
2018-03-28T22:09:47.810Z,98.99
2018-03-28T22:10:47.812Z,99.55
2018-03-28T22:11:47.790Z,99.27
2018-03-28T22:12:47.782Z,98.22
2018-03-28T22:13:47.809Z,98.03
2018-03-28T22:14:47.808Z,97.84
2018-03-28T22:15:47.762Z,97.84
2018-03-28T22:16:47.785Z,96.51
2018-03-28T22:17:47.746Z,97.27
2018-03-28T22:18:47.732Z,97.27
2018-03-28T22:19:47.726Z,97.08
2018-03-28T22:20:47.710Z,97.27
2018-03-28T22:21:47.708Z,98.32
2018-03-28T22:22:47.695Z,97.75
2018-03-28T22:23:47.683Z,98.79
2018-03-28T22:24:47.680Z,98.70
2018-03-28T22:25:47.668Z,98.70
2018-03-28T22:26:47.668Z,97.75
2018-03-28T22:27:47.650Z,98.22
2018-03-28T22:28:47.643Z,96.03
2018-03-28T22:29:47.635Z,93.93
2018-03-28T22:30:47.634Z,92.32
2018-03-28T22:31:47.618Z,91.50
2018-03-28T22:32:47.607Z,91.60
2018-03-28T22:33:47.598Z,92.17
2018-03-28T22:34:47.590Z,92.60
2018-03-28T22:35:47.583Z,91.98
2018-03-28T22:36:47.573Z,90.36
2018-03-28T22:37:47.565Z,91.22
2018-03-28T22:38:47.564Z,90.98
2018-03-28T22:39:47.552Z,90.17
2018-03-28T22:40:47.538Z,89.69
2018-03-28T22:41:47.536Z,91.22
2018-03-28T22:42:47.533Z,90.98
2018-03-28T22:43:47.527Z,91.46
2018-03-28T22:44:47.506Z,92.79
2018-03-28T22:45:47.505Z,92.98
2018-03-28T22:46:47.490Z,92.89
2018-03-28T22:47:47.488Z,93.17
2018-03-28T22:48:47.494Z,92.50
2018-03-28T22:49:47.472Z,92.13
2018-03-28T22:50:47.458Z,92.13
2018-03-28T22:51:47.450Z,91.65
2018-03-28T22:52:47.444Z,91.08
2018-03-28T22:53:47.432Z,90.94
2018-03-28T22:54:47.424Z,91.08
2018-03-28T22:55:47.415Z,91.41
2018-03-28T22:56:47.415Z,90.98
2018-03-28T22:57:47.398Z,89.65
2018-03-28T22:58:47.390Z,88.51
2018-03-28T22:59:47.395Z,87.74
2018-03-28T23:00:47.377Z,88.51
2018-03-28T23:01:47.366Z,88.60
2018-03-28T23:02:47.358Z,88.89
2018-03-28T23:03:47.349Z,89.75
2018-03-28T23:04:47.341Z,89.84
2018-03-28T23:05:47.342Z,90.94
2018-03-28T23:06:47.325Z,90.36
2018-03-28T23:07:47.318Z,91.13
2018-03-28T23:08:47.310Z,89.32
2018-03-28T23:09:47.298Z,89.32
2018-03-28T23:10:47.297Z,90.17
2018-03-28T23:11:47.285Z,89.70
2018-03-28T23:12:47.275Z,89.61
2018-03-28T23:13:47.266Z,90.65
2018-03-28T23:14:47.259Z,90.08
2018-03-28T23:15:47.257Z,90.94
2018-03-28T23:16:47.241Z,91.13
2018-03-28T23:17:47.232Z,90.46
2018-03-28T23:18:47.226Z,90.94
2018-03-28T23:19:47.217Z,90.56
2018-03-28T23:20:47.208Z,90.08
2018-03-28T23:21:47.199Z,90.46
2018-03-28T23:22:47.192Z,91.31
2018-03-28T23:23:47.185Z,92.27
2018-03-28T23:24:47.177Z,91.13
2018-03-28T23:25:47.165Z,90.56
2018-03-28T23:26:47.158Z,90.65
2018-03-28T23:27:47.149Z,89.41
2018-03-28T23:28:47.140Z,89.13
2018-03-28T23:29:47.132Z,89.61
2018-03-28T23:30:47.125Z,89.70
2018-03-28T23:31:47.118Z,89.32
2018-03-28T23:32:47.116Z,89.61
2018-03-28T23:33:47.099Z,90.27
2018-03-28T23:34:47.093Z,90.75
2018-03-28T23:35:47.082Z,90.75
2018-03-28T23:36:47.074Z,90.46
2018-03-28T23:37:47.062Z,90.08
2018-03-28T23:38:47.064Z,90.27
2018-03-28T23:39:47.048Z,89.79
2018-03-28T23:40:47.039Z,89.61
2018-03-28T23:41:47.029Z,89.79
2018-03-28T23:42:47.024Z,90.56
2018-03-28T23:43:47.012Z,89.41
2018-03-28T23:44:47.004Z,89.32
2018-03-28T23:45:46.995Z,90.56
2018-03-28T23:46:46.994Z,91.03
2018-03-28T23:47:46.983Z,89.61
2018-03-28T23:48:46.969Z,90.03
2018-03-28T23:49:46.962Z,91.08
2018-03-28T23:50:46.958Z,91.46
2018-03-28T23:51:46.944Z,90.13
2018-03-28T23:52:46.934Z,88.70
2018-03-28T23:53:46.929Z,90.42
2018-03-28T23:54:46.917Z,90.42
2018-03-28T23:55:46.909Z,90.99
2018-03-28T23:56:46.900Z,90.70
2018-03-28T23:57:46.895Z,91.08
2018-03-28T23:58:46.887Z,91.37
2018-03-28T23:59:46.875Z,91.65
